createdAt,value
2023-01-29T00:00:53.469Z,102699.28
2023-01-29T00:02:25.001Z,102691.50
2023-01-29T00:03:56.645Z,102689.91
2023-01-29T00:05:28.751Z,102686.56
2023-01-29T00:07:00.349Z,102693.56
2023-01-29T00:08:34.429Z,102692.63
2023-01-29T00:10:06.366Z,102689.88
2023-01-29T00:11:37.888Z,102703.63
2023-01-29T00:13:09.406Z,102688.22
2023-01-29T00:14:40.841Z,102694.50
2023-01-29T00:16:12.590Z,102695.56
2023-01-29T00:17:44.769Z,102684.53
2023-01-29T00:19:17.418Z,102685.53
2023-01-29T00:20:48.921Z,102688.25
2023-01-29T00:22:20.444Z,102689.25
2023-01-29T00:23:55.170Z,102682.25
2023-01-29T00:25:26.725Z,102680.47
2023-01-29T00:26:58.189Z,102673.53
2023-01-29T00:28:30.720Z,102678.72
2023-01-29T00:30:19.244Z,102679.41
2023-01-29T00:31:51.161Z,102671.31
2023-01-29T00:33:22.746Z,102684.09
2023-01-29T00:34:54.212Z,102677.91
2023-01-29T00:36:26.015Z,102673.44
2023-01-29T00:37:57.999Z,102665.47
2023-01-29T00:39:47.453Z,102668.78
2023-01-29T00:41:38.970Z,102676.31
2023-01-29T00:43:28.867Z,102673.59
2023-01-29T00:45:00.372Z,102670.94
2023-01-29T00:46:31.876Z,102674.47
2023-01-29T00:48:03.501Z,102683.28
2023-01-29T00:49:35.040Z,102678.31
2023-01-29T00:51:06.530Z,102679.44
2023-01-29T00:52:38.445Z,102668.47
2023-01-29T00:54:10.391Z,102670.34
2023-01-29T00:55:44.446Z,102666.13
2023-01-29T00:57:15.910Z,102660.88
2023-01-29T00:58:47.387Z,102656.34
2023-01-29T01:00:19.542Z,102667.44
2023-01-29T01:02:10.004Z,102669.84
2023-01-29T01:03:42.128Z,102666.31
2023-01-29T01:05:18.053Z,102670.72
2023-01-29T01:06:49.747Z,102668.25
2023-01-29T01:08:40.155Z,102670.25
2023-01-29T01:10:22.606Z,102672.13
2023-01-29T01:11:55.537Z,102673.03
2023-01-29T01:13:27.906Z,102673.13
2023-01-29T01:14:59.491Z,102680.13
2023-01-29T01:16:30.988Z,102680.25
2023-01-29T01:18:03.353Z,102685.47
2023-01-29T01:19:34.837Z,102684.75
2023-01-29T01:21:06.385Z,102679.66
2023-01-29T01:22:37.888Z,102670.28
2023-01-29T01:24:09.439Z,102674.69
2023-01-29T01:25:41.525Z,102675.63
2023-01-29T01:27:14.499Z,102672.16
2023-01-29T01:28:45.977Z,102673.75
2023-01-29T01:30:18.089Z,102676.41
2023-01-29T01:31:50.183Z,102668.72
2023-01-29T01:33:22.081Z,102665.38
2023-01-29T01:34:53.885Z,102673.22
2023-01-29T01:36:25.436Z,102658.59
2023-01-29T01:37:56.909Z,102643.88
2023-01-29T01:39:28.443Z,102649.81
2023-01-29T01:40:59.941Z,102641.63
2023-01-29T01:42:32.809Z,102641.28
2023-01-29T01:44:05.150Z,102637.50
2023-01-29T01:45:36.899Z,102634.69
2023-01-29T01:47:08.486Z,102638.88
2023-01-29T01:48:40.492Z,102644.94
2023-01-29T01:50:15.276Z,102634.66
2023-01-29T01:51:48.580Z,102635.41
2023-01-29T01:53:22.540Z,102637.06
2023-01-29T01:54:54.075Z,102641.22
2023-01-29T01:56:27.801Z,102643.81
2023-01-29T01:58:02.959Z,102642.19
2023-01-29T01:59:35.739Z,102639.59
2023-01-29T02:01:08.193Z,102635.28
2023-01-29T02:02:59.269Z,102637.09
2023-01-29T02:04:49.335Z,102644.13
2023-01-29T02:06:39.409Z,102641.59
2023-01-29T02:08:30.231Z,102641.69
2023-01-29T02:10:04.186Z,102645.28
2023-01-29T02:11:36.141Z,102646.16
2023-01-29T02:13:09.424Z,102642.69
2023-01-29T02:14:42.213Z,102642.59
2023-01-29T02:16:13.675Z,102642.63
2023-01-29T02:17:48.185Z,102640.09
2023-01-29T02:19:29.554Z,102642.69
2023-01-29T02:21:07.588Z,102641.91
2023-01-29T02:22:55.077Z,102659.22
2023-01-29T02:24:42.381Z,102647.09
2023-01-29T02:26:18.659Z,102648.88
2023-01-29T02:28:16.106Z,102661.00
2023-01-29T02:29:54.203Z,102658.47
2023-01-29T02:31:29.117Z,102667.13
2023-01-29T02:33:07.498Z,102669.66
2023-01-29T02:35:01.089Z,102671.44
2023-01-29T02:36:35.860Z,102678.25
2023-01-29T02:38:11.805Z,102687.78
2023-01-29T02:39:48.970Z,102690.50
2023-01-29T02:41:25.980Z,102691.50
2023-01-29T02:43:02.951Z,102689.09
2023-01-29T02:44:38.988Z,102687.53
2023-01-29T02:46:13.506Z,102696.34
2023-01-29T02:47:48.491Z,102698.25
2023-01-29T02:49:23.405Z,102699.34
2023-01-29T02:50:58.865Z,102691.78
2023-01-29T02:52:35.405Z,102697.03
2023-01-29T02:54:13.749Z,102692.84
2023-01-29T02:55:48.007Z,102686.88
2023-01-29T02:57:21.473Z,102678.06
2023-01-29T02:58:54.841Z,102679.44
2023-01-29T03:00:30.279Z,102673.91
2023-01-29T03:02:04.795Z,102665.69
2023-01-29T03:03:39.576Z,102678.19
2023-01-29T03:05:13.149Z,102669.19
2023-01-29T03:06:48.091Z,102674.06
2023-01-29T03:08:22.980Z,102670.38
2023-01-29T03:09:55.627Z,102666.81
2023-01-29T03:11:30.099Z,102668.38
2023-01-29T03:13:06.298Z,102660.47
2023-01-29T03:14:58.332Z,102655.94
2023-01-29T03:16:33.172Z,102656.53
2023-01-29T03:18:08.544Z,102648.59
2023-01-29T03:19:41.502Z,102653.56
2023-01-29T03:21:43.071Z,102655.22
2023-01-29T03:23:27.202Z,102653.56
2023-01-29T03:25:18.558Z,102658.16
2023-01-29T03:27:11.681Z,102666.22
2023-01-29T03:29:07.283Z,102666.47
2023-01-29T03:31:01.785Z,102658.94
2023-01-29T03:32:44.559Z,102667.78
2023-01-29T03:34:24.028Z,102664.44
2023-01-29T03:36:00.753Z,102672.31
2023-01-29T03:37:34.966Z,102672.41
2023-01-29T03:39:11.370Z,102671.69
2023-01-29T03:40:47.546Z,102670.03
2023-01-29T03:42:24.576Z,102668.44
2023-01-29T03:44:01.136Z,102671.97
2023-01-29T03:45:36.818Z,102666.84
2023-01-29T03:47:14.764Z,102671.19
2023-01-29T03:48:51.886Z,102674.66
2023-01-29T03:50:30.934Z,102672.91
2023-01-29T03:52:08.908Z,102664.25
2023-01-29T03:53:43.927Z,102660.72
2023-01-29T03:55:18.559Z,102663.81
2023-01-29T03:56:55.427Z,102658.19
2023-01-29T03:58:34.697Z,102661.31
2023-01-29T04:00:08.820Z,102675.69
2023-01-29T04:02:00.692Z,102665.94
2023-01-29T04:03:35.102Z,102657.09
2023-01-29T04:05:13.832Z,102652.44
2023-01-29T04:06:58.307Z,102656.63
2023-01-29T04:08:31.068Z,102656.53
2023-01-29T04:10:07.914Z,102648.72
2023-01-29T04:11:43.554Z,102646.84
2023-01-29T04:13:15.997Z,102651.88
2023-01-29T04:14:50.222Z,102657.81
2023-01-29T04:16:26.531Z,102658.69
2023-01-29T04:18:14.763Z,102650.13
2023-01-29T04:20:06.984Z,102646.72
2023-01-29T04:21:40.440Z,102644.00
2023-01-29T04:23:19.993Z,102642.25
2023-01-29T04:24:53.817Z,102631.88
2023-01-29T04:26:31.097Z,102635.97
2023-01-29T04:28:08.655Z,102623.69
2023-01-29T04:29:47.817Z,102623.59
2023-01-29T04:31:20.986Z,102622.66
2023-01-29T04:32:59.751Z,102615.59
2023-01-29T04:34:36.239Z,102619.00
2023-01-29T04:36:17.800Z,102619.72
2023-01-29T04:37:56.819Z,102613.50
2023-01-29T04:39:31.999Z,102609.97
2023-01-29T04:41:05.317Z,102619.44
2023-01-29T04:42:41.569Z,102614.31
2023-01-29T04:44:16.978Z,102625.75
2023-01-29T04:45:53.295Z,102622.53
2023-01-29T04:47:29.285Z,102624.44
2023-01-29T04:49:05.358Z,102621.94
2023-01-29T04:50:38.260Z,102623.81
2023-01-29T04:52:15.518Z,102607.66
2023-01-29T04:53:50.321Z,102618.19
2023-01-29T04:55:25.241Z,102615.78
2023-01-29T04:57:01.166Z,102608.19
2023-01-29T04:58:34.821Z,102612.69
2023-01-29T05:00:10.590Z,102599.88
2023-01-29T05:01:43.108Z,102603.47
2023-01-29T05:03:15.393Z,102602.56
2023-01-29T05:04:47.736Z,102612.22
2023-01-29T05:06:20.795Z,102601.91
2023-01-29T05:07:52.739Z,102604.53
2023-01-29T05:09:25.950Z,102602.81
2023-01-29T05:10:58.705Z,102614.13
2023-01-29T05:12:30.893Z,102613.34
2023-01-29T05:14:03.754Z,102616.94
2023-01-29T05:15:37.325Z,102607.56
2023-01-29T05:17:10.395Z,102604.25
2023-01-29T05:18:42.477Z,102602.59
2023-01-29T05:20:14.390Z,102593.16
2023-01-29T05:21:47.936Z,102595.75
2023-01-29T05:23:20.627Z,102592.22
2023-01-29T05:24:53.439Z,102592.75
2023-01-29T05:26:43.677Z,102585.47
2023-01-29T05:28:18.321Z,102597.03
2023-01-29T05:29:49.909Z,102589.81
2023-01-29T05:31:21.471Z,102587.84
2023-01-29T05:32:53.463Z,102591.94
2023-01-29T05:34:25.015Z,102592.66
2023-01-29T05:35:58.129Z,102593.41
2023-01-29T05:37:29.665Z,102592.66
2023-01-29T05:39:01.199Z,102592.66
2023-01-29T05:40:34.064Z,102585.72
2023-01-29T05:42:05.624Z,102577.88
2023-01-29T05:43:37.104Z,102582.09
2023-01-29T05:45:09.231Z,102580.41
2023-01-29T05:46:40.753Z,102573.53
2023-01-29T05:48:12.286Z,102578.75
2023-01-29T05:49:43.772Z,102575.28
2023-01-29T05:51:15.228Z,102571.97
2023-01-29T05:52:46.693Z,102577.06
2023-01-29T05:54:18.200Z,102573.63
2023-01-29T05:55:51.098Z,102571.97
2023-01-29T05:57:22.692Z,102576.38
2023-01-29T05:58:54.610Z,102586.72
2023-01-29T06:00:26.212Z,102578.13
2023-01-29T06:01:58.143Z,102575.59
2023-01-29T06:03:29.598Z,102579.91
2023-01-29T06:05:01.032Z,102585.91
2023-01-29T06:06:32.508Z,102589.47
2023-01-29T06:08:04.505Z,102593.72
2023-01-29T06:09:35.933Z,102596.41
2023-01-29T06:11:09.548Z,102594.84
2023-01-29T06:12:41.117Z,102602.69
2023-01-29T06:14:12.635Z,102601.03
2023-01-29T06:15:44.164Z,102607.19
2023-01-29T06:17:15.683Z,102606.69
2023-01-29T06:18:47.136Z,102602.56
2023-01-29T06:20:18.969Z,102597.50
2023-01-29T06:21:50.657Z,102615.00
2023-01-29T06:23:22.263Z,102611.69
2023-01-29T06:24:53.714Z,102618.00
2023-01-29T06:26:26.525Z,102620.81
2023-01-29T06:27:59.532Z,102626.22
2023-01-29T06:29:31.159Z,102625.53
2023-01-29T06:31:23.817Z,102624.88
2023-01-29T06:32:55.576Z,102636.41
2023-01-29T06:34:27.033Z,102641.03
2023-01-29T06:35:58.847Z,102637.81
2023-01-29T06:37:30.354Z,102640.66
2023-01-29T06:39:02.110Z,102637.25
2023-01-29T06:40:33.580Z,102640.56
2023-01-29T06:42:06.419Z,102630.13
2023-01-29T06:43:37.896Z,102634.44
2023-01-29T06:45:10.113Z,102630.97
2023-01-29T06:46:41.653Z,102641.22
2023-01-29T06:48:13.139Z,102642.88
2023-01-29T06:49:44.815Z,102637.63
2023-01-29T06:51:16.372Z,102640.09
2023-01-29T06:52:47.834Z,102633.09
2023-01-29T06:54:19.277Z,102628.59
2023-01-29T06:55:53.637Z,102630.25
2023-01-29T06:57:28.471Z,102617.00
2023-01-29T06:59:00.132Z,102624.66
2023-01-29T07:00:31.671Z,102609.00
2023-01-29T07:02:03.251Z,102608.88
2023-01-29T07:03:34.784Z,102611.34
2023-01-29T07:05:06.472Z,102604.34
2023-01-29T07:06:37.971Z,102602.69
2023-01-29T07:08:12.004Z,102607.06
2023-01-29T07:09:43.528Z,102612.28
2023-01-29T07:11:15.014Z,102611.47
2023-01-29T07:12:47.887Z,102622.69
2023-01-29T07:14:19.453Z,102613.88
2023-01-29T07:15:51.171Z,102610.25
2023-01-29T07:17:22.700Z,102615.41
2023-01-29T07:18:54.171Z,102612.81
2023-01-29T07:20:26.532Z,102630.94
2023-01-29T07:21:58.100Z,102623.34
2023-01-29T07:23:29.587Z,102612.88
2023-01-29T07:25:01.103Z,102624.88
2023-01-29T07:26:32.599Z,102621.41
2023-01-29T07:28:05.632Z,102622.34
2023-01-29T07:29:37.142Z,102624.34
2023-01-29T07:31:11.637Z,102619.41
2023-01-29T07:32:43.153Z,102623.66
2023-01-29T07:34:14.648Z,102622.88
2023-01-29T07:35:46.132Z,102624.53
2023-01-29T07:37:17.605Z,102618.66
2023-01-29T07:38:50.293Z,102623.09
2023-01-29T07:40:21.763Z,102614.63
2023-01-29T07:41:53.247Z,102621.41
2023-01-29T07:43:29.015Z,102616.28
2023-01-29T07:45:00.471Z,102612.03
2023-01-29T07:46:31.947Z,102607.75
2023-01-29T07:48:04.960Z,102602.56
2023-01-29T07:49:36.484Z,102599.09
2023-01-29T07:51:07.986Z,102600.97
2023-01-29T07:52:39.754Z,102604.78
2023-01-29T07:54:11.216Z,102606.94
2023-01-29T07:55:44.064Z,102621.00
2023-01-29T07:57:15.868Z,102614.38
2023-01-29T07:58:48.794Z,102616.31
2023-01-29T08:00:20.884Z,102607.06
2023-01-29T08:01:52.866Z,102597.84
2023-01-29T08:03:24.488Z,102593.59
2023-01-29T08:04:56.015Z,102582.34
2023-01-29T08:06:27.566Z,102587.56
2023-01-29T08:08:06.554Z,102590.16
2023-01-29T08:09:38.681Z,102597.81
2023-01-29T08:11:10.146Z,102596.91
2023-01-29T08:12:41.633Z,102594.31
2023-01-29T08:14:14.466Z,102593.44
2023-01-29T08:15:46.119Z,102585.56
2023-01-29T08:17:17.647Z,102589.88
2023-01-29T08:18:49.163Z,102592.47
2023-01-29T08:20:21.197Z,102595.00
2023-01-29T08:21:52.693Z,102600.94
2023-01-29T08:23:24.261Z,102600.06
2023-01-29T08:25:06.451Z,102609.69
2023-01-29T08:26:39.431Z,102609.16
2023-01-29T08:28:11.805Z,102607.75
2023-01-29T08:29:44.650Z,102610.72
2023-01-29T08:31:16.787Z,102609.34
2023-01-29T08:32:48.291Z,102603.47
2023-01-29T08:34:19.835Z,102598.38
2023-01-29T08:35:51.653Z,102601.56
2023-01-29T08:37:23.303Z,102596.97
2023-01-29T08:38:54.825Z,102596.66
2023-01-29T08:40:26.992Z,102599.03
2023-01-29T08:41:58.564Z,102592.03
2023-01-29T08:43:30.161Z,102600.66
2023-01-29T08:45:03.369Z,102586.03
2023-01-29T08:46:34.919Z,102585.97
2023-01-29T08:48:06.649Z,102588.56
2023-01-29T08:49:38.133Z,102586.81
2023-01-29T08:51:09.663Z,102580.78
2023-01-29T08:52:41.202Z,102578.25
2023-01-29T08:54:12.717Z,102577.47
2023-01-29T08:55:45.830Z,102578.50
2023-01-29T08:57:17.324Z,102590.72
2023-01-29T08:58:48.950Z,102588.34
2023-01-29T09:00:22.890Z,102593.66
2023-01-29T09:01:54.368Z,102597.31
2023-01-29T09:03:25.894Z,102606.84
2023-01-29T09:04:57.430Z,102598.44
2023-01-29T09:06:28.894Z,102590.69
2023-01-29T09:08:00.724Z,102596.03
2023-01-29T09:09:32.154Z,102590.06
2023-01-29T09:11:03.817Z,102588.53
2023-01-29T09:12:35.308Z,102582.50
2023-01-29T09:14:06.905Z,102576.38
2023-01-29T09:15:39.830Z,102571.16
2023-01-29T09:17:11.353Z,102562.38
2023-01-29T09:18:42.847Z,102571.78
2023-01-29T09:20:14.370Z,102573.56
2023-01-29T09:21:46.357Z,102562.16
2023-01-29T09:23:17.880Z,102561.06
2023-01-29T09:24:49.431Z,102571.47
2023-01-29T09:26:21.096Z,102567.78
2023-01-29T09:27:53.857Z,102561.81
2023-01-29T09:29:25.430Z,102568.03
2023-01-29T09:31:00.441Z,102569.09
2023-01-29T09:34:23.587Z,102561.41
2023-01-29T09:35:55.089Z,102546.59
2023-01-29T09:37:26.617Z,102553.53
2023-01-29T09:38:58.163Z,102555.25
2023-01-29T09:40:32.264Z,102549.28
2023-01-29T09:42:08.055Z,102545.97
2023-01-29T09:43:42.861Z,102546.91
2023-01-29T09:45:16.090Z,102545.28
2023-01-29T09:46:51.443Z,102545.47
2023-01-29T09:48:25.681Z,102539.53
2023-01-29T09:49:59.018Z,102534.44
2023-01-29T09:51:32.067Z,102532.72
2023-01-29T09:53:06.794Z,102534.56
2023-01-29T09:54:46.906Z,102538.78
2023-01-29T09:56:19.985Z,102531.97
2023-01-29T09:57:53.515Z,102525.97
2023-01-29T09:59:26.745Z,102518.38
2023-01-29T10:01:00.636Z,102525.44
2023-01-29T10:02:43.899Z,102529.81
2023-01-29T10:04:22.903Z,102526.38
2023-01-29T10:06:05.068Z,102515.38
2023-01-29T10:07:57.809Z,102524.25
2023-01-29T10:09:53.320Z,102518.25
2023-01-29T10:11:29.533Z,102519.34
2023-01-29T10:13:05.502Z,102514.25
2023-01-29T10:14:40.877Z,102524.69
2023-01-29T10:16:19.442Z,102524.72
2023-01-29T10:17:59.887Z,102529.22
2023-01-29T10:19:41.064Z,102534.53
2023-01-29T10:21:20.205Z,102529.44
2023-01-29T10:22:56.715Z,102533.06
2023-01-29T10:24:36.460Z,102529.72
2023-01-29T10:26:11.126Z,102534.91
2023-01-29T10:27:47.485Z,102528.06
2023-01-29T10:29:19.966Z,102535.03
2023-01-29T10:30:54.912Z,102518.59
2023-01-29T10:32:27.041Z,102517.75
2023-01-29T10:34:02.902Z,102524.75
2023-01-29T10:35:38.268Z,102522.06
2023-01-29T10:37:15.574Z,102512.44
2023-01-29T10:38:48.507Z,102529.59
2023-01-29T10:40:21.609Z,102521.72
2023-01-29T10:42:00.884Z,102516.56
2023-01-29T10:43:34.076Z,102518.41
2023-01-29T10:45:13.031Z,102518.41
2023-01-29T10:46:52.041Z,102519.28
2023-01-29T10:48:38.413Z,102509.75
2023-01-29T10:50:16.470Z,102506.41
2023-01-29T10:51:56.363Z,102505.47
2023-01-29T10:53:33.407Z,102509.91
2023-01-29T10:55:15.015Z,102497.78
2023-01-29T10:56:52.384Z,102498.78
2023-01-29T10:58:29.743Z,102498.00
2023-01-29T11:00:10.141Z,102496.34
2023-01-29T11:01:41.923Z,102485.03
2023-01-29T11:03:27.107Z,102495.34
2023-01-29T11:04:59.580Z,102490.88
2023-01-29T11:06:34.083Z,102485.63
2023-01-29T11:08:08.583Z,102477.00
2023-01-29T11:09:41.512Z,102476.25
2023-01-29T11:11:13.763Z,102478.88
2023-01-29T11:12:45.757Z,102477.13
2023-01-29T11:14:21.749Z,102476.28
2023-01-29T11:15:53.616Z,102465.88
2023-01-29T11:17:25.885Z,102461.53
2023-01-29T11:18:59.352Z,102463.22
2023-01-29T11:20:31.855Z,102455.41
2023-01-29T11:22:04.792Z,102467.63
2023-01-29T11:23:36.285Z,102460.50
2023-01-29T11:25:12.637Z,102457.06
2023-01-29T11:26:46.196Z,102453.56
2023-01-29T11:28:35.205Z,102464.03
2023-01-29T11:30:15.037Z,102464.91
2023-01-29T11:31:46.966Z,102465.78
2023-01-29T11:33:19.684Z,102455.44
2023-01-29T11:34:58.500Z,102448.50
2023-01-29T11:36:34.040Z,102451.94
2023-01-29T11:38:18.503Z,102453.69
2023-01-29T11:39:50.616Z,102449.41
2023-01-29T11:41:24.282Z,102451.19
2023-01-29T11:42:55.860Z,102441.75
2023-01-29T11:44:28.720Z,102443.53
2023-01-29T11:46:02.530Z,102444.50
2023-01-29T11:47:34.092Z,102423.72
2023-01-29T11:49:14.298Z,102430.75
2023-01-29T11:50:52.371Z,102420.34
2023-01-29T11:52:24.541Z,102419.53
2023-01-29T11:53:58.138Z,102416.06
2023-01-29T11:55:40.938Z,102409.25
2023-01-29T11:57:30.195Z,102404.06
2023-01-29T11:59:04.599Z,102406.75
2023-01-29T12:00:37.498Z,102399.06
2023-01-29T12:02:18.699Z,102394.78
2023-01-29T12:03:53.092Z,102388.81
2023-01-29T12:05:26.045Z,102394.09
2023-01-29T12:06:58.005Z,102389.81
2023-01-29T12:08:32.128Z,102391.56
2023-01-29T12:10:05.608Z,102384.56
2023-01-29T12:11:37.552Z,102381.03
2023-01-29T12:13:20.437Z,102373.31
2023-01-29T12:15:02.071Z,102369.84
2023-01-29T12:16:38.006Z,102358.56
2023-01-29T12:18:14.088Z,102352.44
2023-01-29T12:19:47.870Z,102350.69
2023-01-29T12:21:23.933Z,102342.88
2023-01-29T12:22:59.558Z,102338.53
2023-01-29T12:24:34.460Z,102335.97
2023-01-29T12:26:09.833Z,102328.22
2023-01-29T12:27:46.305Z,102324.78
2023-01-29T12:29:23.991Z,102322.16
2023-01-29T12:31:04.879Z,102319.50
2023-01-29T12:32:43.144Z,102311.66
2023-01-29T12:34:19.439Z,102299.56
2023-01-29T12:35:54.874Z,102285.75
2023-01-29T12:37:30.570Z,102290.16
2023-01-29T12:39:02.241Z,102286.69
2023-01-29T12:40:37.831Z,102286.69
2023-01-29T12:42:13.851Z,102278.91
2023-01-29T12:43:47.951Z,102279.78
2023-01-29T12:45:20.880Z,102282.41
2023-01-29T12:46:54.464Z,102281.59
2023-01-29T12:48:27.793Z,102274.66
2023-01-29T12:50:02.334Z,102276.41
2023-01-29T12:51:36.485Z,102263.44
2023-01-29T12:53:16.418Z,102268.63
2023-01-29T12:54:49.972Z,102266.06
2023-01-29T12:56:26.177Z,102264.25
2023-01-29T12:58:00.088Z,102255.59
2023-01-29T12:59:36.790Z,102248.72
2023-01-29T13:01:12.458Z,102235.75
2023-01-29T13:02:48.601Z,102237.47
2023-01-29T13:04:29.354Z,102238.31
2023-01-29T13:06:02.692Z,102240.06
2023-01-29T13:07:37.894Z,102237.59
2023-01-29T13:09:11.780Z,102227.19
2023-01-29T13:10:46.081Z,102227.16
2023-01-29T13:12:18.539Z,102224.63
2023-01-29T13:13:54.380Z,102226.41
2023-01-29T13:15:28.722Z,102217.75
2023-01-29T13:17:06.895Z,102214.34
2023-01-29T13:18:42.072Z,102218.72
2023-01-29T13:20:17.607Z,102222.22
2023-01-29T13:21:50.904Z,102212.69
2023-01-29T13:23:25.484Z,102218.84
2023-01-29T13:25:04.508Z,102219.75
2023-01-29T13:26:37.103Z,102212.81
2023-01-29T13:28:16.378Z,102216.25
2023-01-29T13:29:49.435Z,102207.63
2023-01-29T13:31:25.586Z,102212.88
2023-01-29T13:33:09.235Z,102219.00
2023-01-29T13:34:45.011Z,102219.91
2023-01-29T13:36:20.769Z,102222.53
2023-01-29T13:37:53.740Z,102210.50
2023-01-29T13:39:27.362Z,102215.75
2023-01-29T13:41:01.826Z,102210.63
2023-01-29T13:42:38.689Z,102226.34
2023-01-29T13:44:20.110Z,102217.69
2023-01-29T13:45:54.245Z,102216.91
2023-01-29T13:47:27.444Z,102223.88
2023-01-29T13:49:04.768Z,102223.00
2023-01-29T13:50:37.572Z,102218.69
2023-01-29T13:52:15.990Z,102226.63
2023-01-29T13:53:53.723Z,102230.19
2023-01-29T13:55:31.377Z,102215.44
2023-01-29T13:57:03.350Z,102227.59
2023-01-29T13:58:49.693Z,102226.69
2023-01-29T14:00:39.672Z,102224.09
2023-01-29T14:02:24.056Z,102224.91
2023-01-29T14:04:04.571Z,102222.31
2023-01-29T14:05:40.736Z,102221.41
2023-01-29T14:07:27.105Z,102212.72
2023-01-29T14:09:00.635Z,102218.78
2023-01-29T14:10:33.438Z,102218.78
2023-01-29T14:12:05.393Z,102217.91
2023-01-29T14:13:37.195Z,102214.47
2023-01-29T14:15:22.585Z,102216.22
2023-01-29T14:17:00.709Z,102200.56
2023-01-29T14:18:34.678Z,102210.13
2023-01-29T14:20:17.435Z,102210.06
2023-01-29T14:21:50.140Z,102203.91
2023-01-29T14:23:24.062Z,102204.75
2023-01-29T14:24:56.924Z,102207.25
2023-01-29T14:26:30.316Z,102210.72
2023-01-29T14:28:03.109Z,102205.47
2023-01-29T14:29:39.344Z,102203.72
2023-01-29T14:31:11.106Z,102204.59
2023-01-29T14:32:47.550Z,102201.06
2023-01-29T14:34:26.396Z,102210.59
2023-01-29T14:35:58.264Z,102203.56
2023-01-29T14:37:32.662Z,102199.19
2023-01-29T14:39:06.701Z,102193.97
2023-01-29T14:40:41.350Z,102194.84
2023-01-29T14:42:19.087Z,102197.47
2023-01-29T14:43:50.818Z,102195.72
2023-01-29T14:45:23.474Z,102195.72
2023-01-29T14:46:54.998Z,102200.00
2023-01-29T14:48:36.986Z,102192.16
2023-01-29T14:50:23.421Z,102190.41
2023-01-29T14:51:56.532Z,102194.69
2023-01-29T14:53:31.609Z,102192.06
2023-01-29T14:55:05.639Z,102197.25
2023-01-29T14:56:40.496Z,102191.16
2023-01-29T14:58:14.474Z,102194.69
2023-01-29T14:59:49.313Z,102176.38
2023-01-29T15:01:23.252Z,102189.34
2023-01-29T15:03:02.091Z,102186.72
2023-01-29T15:04:38.395Z,102187.56
2023-01-29T15:06:15.375Z,102189.25
2023-01-29T15:07:53.393Z,102197.00
2023-01-29T15:09:36.502Z,102191.75
2023-01-29T15:11:31.170Z,102194.38
2023-01-29T15:13:04.826Z,102181.34
2023-01-29T15:14:38.282Z,102185.63
2023-01-29T15:16:14.712Z,102182.16
2023-01-29T15:17:52.372Z,102183.88
2023-01-29T15:19:26.815Z,102180.41
2023-01-29T15:21:03.412Z,102191.69
2023-01-29T15:22:42.553Z,102191.66
2023-01-29T15:24:15.423Z,102188.97
2023-01-29T15:25:48.250Z,102177.69
2023-01-29T15:27:20.402Z,102181.19
2023-01-29T15:29:02.122Z,102181.16
2023-01-29T15:30:36.256Z,102167.25
2023-01-29T15:32:11.020Z,102162.91
2023-01-29T15:33:44.783Z,102162.91
2023-01-29T15:35:26.349Z,102162.88
2023-01-29T15:36:57.939Z,102161.97
2023-01-29T15:38:29.590Z,102158.44
2023-01-29T15:40:06.826Z,102167.09
2023-01-29T15:41:39.478Z,102158.47
2023-01-29T15:43:28.801Z,102153.25
2023-01-29T15:45:00.410Z,102151.50
2023-01-29T15:46:34.264Z,102155.84
2023-01-29T15:48:08.503Z,102148.91
2023-01-29T15:49:40.171Z,102151.47
2023-01-29T15:51:15.578Z,102149.72
2023-01-29T15:52:48.873Z,102146.25
2023-01-29T15:54:20.421Z,102154.06
2023-01-29T15:55:53.788Z,102162.72
2023-01-29T15:57:35.293Z,102151.44
2023-01-29T15:59:09.713Z,102153.13
2023-01-29T16:00:48.199Z,102150.53
2023-01-29T16:02:27.520Z,102146.19
2023-01-29T16:04:02.972Z,102138.38
2023-01-29T16:05:35.163Z,102141.03
2023-01-29T16:07:07.106Z,102151.44
2023-01-29T16:08:39.573Z,102144.50
2023-01-29T16:10:16.402Z,102148.91
2023-01-29T16:11:50.459Z,102149.75
2023-01-29T16:13:22.930Z,102144.56
2023-01-29T16:14:55.311Z,102141.06
2023-01-29T16:16:27.925Z,102144.56
2023-01-29T16:18:00.726Z,102142.78
2023-01-29T16:19:32.575Z,102135.81
2023-01-29T16:21:06.534Z,102135.81
2023-01-29T16:22:38.361Z,102135.81
2023-01-29T16:24:11.847Z,102127.03
2023-01-29T16:25:43.524Z,102127.03
2023-01-29T16:27:16.493Z,102124.34
2023-01-29T16:28:48.319Z,102130.41
2023-01-29T16:30:20.058Z,102125.22
2023-01-29T16:31:53.247Z,102112.19
2023-01-29T16:33:28.619Z,102113.06
2023-01-29T16:35:00.340Z,102105.22
2023-01-29T16:36:32.092Z,102106.94
2023-01-29T16:38:06.308Z,102102.59
2023-01-29T16:39:39.588Z,102101.69
2023-01-29T16:41:16.292Z,102104.31
2023-01-29T16:42:49.190Z,102099.06
2023-01-29T16:44:35.319Z,102106.00
2023-01-29T16:46:15.927Z,102093.88
2023-01-29T16:47:59.468Z,102096.50
2023-01-29T16:49:43.743Z,102095.66
2023-01-29T16:51:17.621Z,102089.59
2023-01-29T16:52:57.375Z,102086.16
2023-01-29T16:54:29.567Z,102092.25
2023-01-29T16:56:03.654Z,102092.25
2023-01-29T16:57:35.227Z,102093.13
2023-01-29T16:59:16.632Z,102098.34
2023-01-29T17:00:49.835Z,102103.56
2023-01-29T17:02:23.928Z,102098.34
2023-01-29T17:04:07.645Z,102098.34
2023-01-29T17:05:39.275Z,102091.44
2023-01-29T17:07:16.189Z,102108.84
2023-01-29T17:08:48.075Z,102101.91
2023-01-29T17:10:20.862Z,102099.28
2023-01-29T17:11:55.896Z,102091.50
2023-01-29T17:13:29.097Z,102089.81
2023-01-29T17:15:03.067Z,102093.28
2023-01-29T17:16:37.422Z,102096.75
2023-01-29T17:18:15.521Z,102095.88
2023-01-29T17:19:47.244Z,102091.50
2023-01-29T17:21:18.734Z,102083.69
2023-01-29T17:22:50.383Z,102076.78
2023-01-29T17:24:21.928Z,102076.78
2023-01-29T17:25:53.837Z,102070.69
2023-01-29T17:27:26.751Z,102064.63
2023-01-29T17:28:58.280Z,102073.28
2023-01-29T17:30:33.781Z,102073.28
2023-01-29T17:32:05.628Z,102074.16
2023-01-29T17:33:38.375Z,102075.88
2023-01-29T17:35:11.899Z,102072.41
2023-01-29T17:36:43.731Z,102069.81
2023-01-29T17:38:25.633Z,102072.41
2023-01-29T17:39:59.398Z,102069.81
2023-01-29T17:41:31.656Z,102064.59
2023-01-29T17:43:03.332Z,102068.91
2023-01-29T17:44:34.847Z,102057.66
2023-01-29T17:46:09.919Z,102059.41
2023-01-29T17:47:41.417Z,102050.75
2023-01-29T17:49:22.596Z,102058.56
2023-01-29T17:50:55.154Z,102052.50
2023-01-29T17:52:26.637Z,102055.97
2023-01-29T17:53:58.366Z,102057.69
2023-01-29T17:55:29.849Z,102063.78
2023-01-29T17:57:01.381Z,102062.91
2023-01-29T17:58:32.924Z,102061.16
2023-01-29T18:00:09.595Z,102058.59
2023-01-29T18:01:42.887Z,102056.81
2023-01-29T18:03:14.771Z,102056.00
2023-01-29T18:04:50.816Z,102042.13
2023-01-29T18:06:24.693Z,102044.69